Time;durP1;ratioP1;P1;durP2;ratioP2;P2;SDS_P1;SDS_P2;PMS_P1;PMS_P2;Temp;Humidity;BMP_temperature;BMP_pressure;BME280_temperature;BME280_humidity;BME280_pressure;Samples;Min_cycle;Max_cycle;Signal;HPM_P1;HPM_P2
2023/08/27 00:01:36;;;;;;;13.50;12.13;;;14.00;92.00;;;;;;5062962;28;20195;-48
2023/08/27 00:04:02;;;;;;;17.15;14.02;;;14.00;92.00;;;;;;5014412;28;20034;-48
2023/08/27 00:06:28;;;;;;;15.15;13.63;;;14.00;92.10;;;;;;5034449;28;20031;-45
2023/08/27 00:08:56;;;;;;;18.02;15.02;;;14.00;92.00;;;;;;5063700;28;20477;-49
2023/08/27 00:11:23;;;;;;;16.75;13.75;;;13.90;92.00;;;;;;5041196;28;20082;-47
2023/08/27 00:13:50;;;;;;;15.05;13.43;;;13.90;92.10;;;;;;5040855;28;20053;-46
2023/08/27 00:16:18;;;;;;;17.50;14.02;;;13.90;92.20;;;;;;5029082;28;20038;-47
2023/08/27 00:18:45;;;;;;;15.52;13.05;;;13.90;92.30;;;;;;5068247;28;20032;-47
2023/08/27 00:21:15;;;;;;;14.63;13.07;;;13.90;92.20;;;;;;5029184;28;20364;-50
2023/08/27 00:23:43;;;;;;;15.98;14.32;;;13.90;92.20;;;;;;5058904;28;20056;-46
2023/08/27 00:26:09;;;;;;;15.02;13.02;;;13.90;92.20;;;;;;5066912;28;20078;-46
2023/08/27 00:28:40;;;;;;;15.35;13.85;;;13.90;92.20;;;;;;5036073;28;20116;-47
2023/08/27 00:31:07;;;;;;;16.90;12.43;;;13.90;92.20;;;;;;5050379;28;20043;-47
2023/08/27 00:33:35;;;;;;;14.48;13.00;;;13.90;92.30;;;;;;5040891;28;20458;-45
2023/08/27 00:36:03;;;;;;;14.23;12.73;;;13.90;92.20;;;;;;5039203;28;20025;-46
2023/08/27 00:38:31;;;;;;;15.15;13.65;;;13.90;92.20;;;;;;5049161;28;20077;-49
2023/08/27 00:40:59;;;;;;;13.77;11.73;;;13.90;92.10;;;;;;5059924;28;20034;-46
2023/08/27 00:43:31;;;;;;;13.02;11.55;;;13.90;92.00;;;;;;5035910;28;20024;-45
2023/08/27 00:45:59;;;;;;;14.02;11.95;;;13.90;92.10;;;;;;5047661;28;20394;-46
2023/08/27 00:48:26;;;;;;;13.95;12.60;;;13.80;92.10;;;;;;5073954;28;20085;-49
2023/08/27 00:50:52;;;;;;;13.07;11.75;;;13.80;92.10;;;;;;5051416;28;20540;-48
2023/08/27 00:53:20;;;;;;;12.68;10.60;;;13.80;92.10;;;;;;5073054;28;20025;-46
2023/08/27 00:55:47;;;;;;;11.45;10.02;;;13.80;92.20;;;;;;5065151;28;20078;-45
2023/08/27 00:58:19;;;;;;;11.95;10.05;;;13.80;92.20;;;;;;5051347;28;20144;-46
2023/08/27 01:00:45;;;;;;;12.00;10.02;;;13.80;92.20;;;;;;5039832;28;20334;-46
2023/08/27 01:03:13;;;;;;;11.18;9.98;;;13.80;92.20;;;;;;5055214;28;20043;-45
2023/08/27 01:05:42;;;;;;;10.90;9.68;;;13.80;92.20;;;;;;5062093;28;20025;-47
2023/08/27 01:08:31;;;;;;;11.75;9.48;;;13.80;92.10;;;;;;5054199;28;20136;-46
2023/08/27 01:11:34;;;;;;;11.27;10.07;;;13.80;92.10;;;;;;5061530;28;20025;-48
2023/08/27 01:14:10;;;;;;;10.93;9.82;;;13.70;92.00;;;;;;5057124;28;20394;-47
2023/08/27 01:16:37;;;;;;;11.73;9.60;;;13.70;92.00;;;;;;5054238;28;20124;-49
2023/08/27 01:19:10;;;;;;;10.65;9.48;;;13.70;92.00;;;;;;5043279;28;20041;-47
2023/08/27 01:21:39;;;;;;;11.30;10.20;;;13.70;92.20;;;;;;5019103;28;20419;-45
2023/08/27 01:24:07;;;;;;;10.13;9.15;;;13.60;92.10;;;;;;5037791;28;20095;-45
2023/08/27 01:26:54;;;;;;;11.98;9.82;;;13.60;92.30;;;;;;5054910;28;20117;-47
2023/08/27 01:29:48;;;;;;;11.23;10.13;;;13.70;92.50;;;;;;5002445;28;20033;-46
2023/08/27 01:32:36;;;;;;;12.27;9.32;;;13.60;92.40;;;;;;5040568;28;20037;-48
2023/08/27 01:35:03;;;;;;;10.45;9.38;;;13.60;92.30;;;;;;5017452;28;20116;-47
2023/08/27 01:37:29;;;;;;;10.35;8.95;;;13.70;92.40;;;;;;5043250;28;20057;-45
2023/08/27 01:40:08;;;;;;;10.52;9.05;;;13.60;92.30;;;;;;5037455;28;20549;-48
2023/08/27 01:42:37;;;;;;;12.10;10.00;;;13.70;92.40;;;;;;5037060;28;20082;-46
2023/08/27 01:45:23;;;;;;;11.75;9.90;;;13.60;92.30;;;;;;5059492;28;20029;-49
2023/08/27 01:47:51;;;;;;;10.48;9.38;;;13.60;92.60;;;;;;5051873;28;20045;-48
2023/08/27 01:50:22;;;;;;;10.15;9.15;;;13.60;92.60;;;;;;5049519;28;20033;-46
2023/08/27 01:52:52;;;;;;;12.43;9.90;;;13.70;92.80;;;;;;5057312;28;20413;-50
2023/08/27 01:55:20;;;;;;;10.68;9.63;;;13.70;92.80;;;;;;5062834;28;20032;-46
2023/08/27 01:57:48;;;;;;;11.32;9.60;;;13.80;92.70;;;;;;5063371;28;20039;-46
2023/08/27 02:00:16;;;;;;;9.70;8.80;;;13.70;92.70;;;;;;5067709;28;20107;-46
2023/08/27 02:02:44;;;;;;;9.77;8.73;;;13.80;92.80;;;;;;5034136;28;20033;-47
2023/08/27 02:05:12;;;;;;;10.23;9.10;;;13.80;92.70;;;;;;5017306;28;20071;-46
2023/08/27 02:07:41;;;;;;;10.15;9.10;;;13.80;92.60;;;;;;5054128;28;20040;-46
2023/08/27 02:10:07;;;;;;;11.05;10.00;;;13.80;92.60;;;;;;5065584;28;20496;-45
2023/08/27 02:12:35;;;;;;;9.57;8.68;;;13.80;92.50;;;;;;5036112;28;20048;-50
2023/08/27 02:15:09;;;;;;;10.10;9.13;;;13.80;92.50;;;;;;5034680;28;20764;-50
2023/08/27 02:17:38;;;;;;;11.88;9.88;;;13.80;92.50;;;;;;5050069;28;20029;-47
2023/08/27 02:20:09;;;;;;;11.05;9.27;;;13.80;92.50;;;;;;5060362;28;20029;-45
2023/08/27 02:22:35;;;;;;;10.80;9.70;;;13.70;92.50;;;;;;5037545;28;20079;-47
2023/08/27 02:25:02;;;;;;;9.63;8.73;;;13.80;92.50;;;;;;5035552;28;20033;-45
2023/08/27 02:27:30;;;;;;;9.75;8.23;;;13.80;92.60;;;;;;5017219;28;20400;-49
2023/08/27 02:29:57;;;;;;;9.50;8.60;;;13.80;92.50;;;;;;5054616;28;20024;-46
2023/08/27 02:32:25;;;;;;;10.82;8.85;;;13.80;92.40;;;;;;5070719;28;20032;-49
2023/08/27 02:34:52;;;;;;;9.48;8.60;;;13.80;92.40;;;;;;5063973;28;20159;-48
2023/08/27 02:37:24;;;;;;;9.88;8.93;;;13.70;92.20;;;;;;5056861;28;20582;-50
2023/08/27 02:39:52;;;;;;;10.77;9.70;;;13.70;92.20;;;;;;5045499;28;20413;-45
2023/08/27 02:42:21;;;;;;;12.45;9.52;;;13.70;92.30;;;;;;5045046;28;20033;-51
2023/08/27 02:44:47;;;;;;;9.75;8.77;;;13.60;92.10;;;;;;5068371;28;20097;-48
2023/08/27 02:47:14;;;;;;;10.05;9.05;;;13.60;92.30;;;;;;5067454;28;20032;-48
2023/08/27 02:49:45;;;;;;;9.60;8.63;;;13.60;92.30;;;;;;5070764;28;20353;-49
2023/08/27 02:52:13;;;;;;;9.80;8.73;;;13.60;92.30;;;;;;5064990;28;20032;-48
2023/08/27 02:54:40;;;;;;;9.57;8.68;;;13.50;92.10;;;;;;5050465;28;20040;-46
2023/08/27 02:57:07;;;;;;;9.05;8.15;;;13.50;92.20;;;;;;5074077;28;20025;-49
2023/08/27 02:59:37;;;;;;;9.60;8.70;;;13.50;92.20;;;;;;5068520;28;20499;-47
2023/08/27 03:02:03;;;;;;;9.77;8.77;;;13.50;92.20;;;;;;5043341;28;20038;-48
2023/08/27 03:04:30;;;;;;;9.80;8.90;;;13.50;92.30;;;;;;5033805;28;20033;-45
2023/08/27 03:06:55;;;;;;;10.35;9.30;;;13.50;92.30;;;;;;5036104;28;20040;-48
2023/08/27 03:09:24;;;;;;;10.07;9.02;;;13.40;92.30;;;;;;5064990;28;20028;-46
2023/08/27 03:11:51;;;;;;;10.65;9.65;;;13.40;92.40;;;;;;5070391;28;20029;-47
2023/08/27 03:14:17;;;;;;;10.00;9.00;;;13.40;92.40;;;;;;5051818;28;20045;-49
2023/08/27 03:16:44;;;;;;;9.82;8.60;;;13.40;92.60;;;;;;5042682;28;20116;-50
2023/08/27 03:19:10;;;;;;;10.60;9.50;;;13.40;92.60;;;;;;5068362;28;20034;-51
2023/08/27 03:21:40;;;;;;;9.95;9.02;;;13.40;92.50;;;;;;5042398;28;20017;-46
2023/08/27 03:24:07;;;;;;;9.50;8.65;;;13.40;92.50;;;;;;5052259;28;20104;-48
2023/08/27 03:26:34;;;;;;;11.50;10.43;;;13.40;92.50;;;;;;5071958;28;20030;-49
2023/08/27 03:29:00;;;;;;;10.85;9.77;;;13.40;92.40;;;;;;5073314;28;20025;-50
2023/08/27 03:31:26;;;;;;;9.57;8.68;;;13.40;92.50;;;;;;5069209;28;20025;-48
2023/08/27 03:33:54;;;;;;;11.30;9.80;;;13.40;92.40;;;;;;5040337;28;20104;-49
2023/08/27 03:36:28;;;;;;;11.32;10.23;;;13.40;92.30;;;;;;5034269;28;20076;-48
2023/08/27 03:38:57;;;;;;;10.18;9.18;;;13.40;92.20;;;;;;5042592;28;20104;-45
2023/08/27 03:41:24;;;;;;;10.38;9.48;;;13.30;92.20;;;;;;5060116;28;20024;-47
2023/08/27 03:43:52;;;;;;;11.27;10.18;;;13.30;92.20;;;;;;5070454;28;20028;-50
2023/08/27 03:46:19;;;;;;;10.77;9.77;;;13.30;92.20;;;;;;5031986;28;20031;-50
2023/08/27 03:48:47;;;;;;;10.38;9.38;;;13.30;92.30;;;;;;5052416;28;20039;-46
2023/08/27 03:51:12;;;;;;;11.52;10.32;;;13.30;92.30;;;;;;5064271;28;20037;-49
2023/08/27 03:53:40;;;;;;;13.48;10.40;;;13.20;92.30;;;;;;5063906;28;20032;-47
2023/08/27 03:56:08;;;;;;;10.38;9.30;;;13.30;92.40;;;;;;5057755;28;20430;-49
2023/08/27 03:58:39;;;;;;;10.55;9.63;;;13.30;92.30;;;;;;5056814;28;20633;-45
2023/08/27 04:01:06;;;;;;;10.52;9.52;;;13.30;92.30;;;;;;5061892;28;20029;-45
2023/08/27 04:03:33;;;;;;;10.50;9.43;;;13.20;92.30;;;;;;5072121;28;20024;-45
2023/08/27 04:06:06;;;;;;;10.73;9.63;;;13.30;92.20;;;;;;5045732;28;20353;-48
2023/08/27 04:08:32;;;;;;;15.40;10.00;;;13.20;92.30;;;;;;5067285;28;20033;-47
2023/08/27 04:11:02;;;;;;;11.02;10.02;;;13.20;92.20;;;;;;5054183;28;20078;-46
2023/08/27 04:13:30;;;;;;;10.65;9.55;;;13.20;92.20;;;;;;5054869;28;20048;-46
2023/08/27 04:16:07;;;;;;;11.35;10.25;;;13.20;92.30;;;;;;5060833;28;20040;-51
2023/08/27 04:18:33;;;;;;;12.85;9.60;;;13.20;92.10;;;;;;5072024;28;20021;-54
2023/08/27 04:21:00;;;;;;;11.23;10.15;;;13.20;92.10;;;;;;5065649;28;20058;-49
2023/08/27 04:23:29;;;;;;;11.05;9.90;;;13.20;92.20;;;;;;5066350;28;20434;-49
2023/08/27 04:25:56;;;;;;;11.23;10.10;;;13.10;92.20;;;;;;5048580;28;20042;-49
2023/08/27 04:28:22;;;;;;;10.35;9.38;;;13.20;92.10;;;;;;5032870;28;20352;-46
2023/08/27 04:30:48;;;;;;;12.85;9.50;;;13.10;92.20;;;;;;5039809;28;20028;-47
2023/08/27 04:33:16;;;;;;;11.32;10.18;;;13.10;92.20;;;;;;5051095;28;20029;-49
2023/08/27 04:35:47;;;;;;;11.18;9.98;;;13.20;92.20;;;;;;5019174;28;20450;-45
2023/08/27 04:38:16;;;;;;;10.93;9.88;;;13.10;92.20;;;;;;5033624;28;20537;-47
2023/08/27 04:40:50;;;;;;;10.80;9.70;;;13.10;92.30;;;;;;5054031;28;20025;-46
2023/08/27 04:43:17;;;;;;;11.10;10.10;;;13.20;92.30;;;;;;5042467;28;20034;-47
2023/08/27 04:45:44;;;;;;;12.02;10.82;;;13.10;92.20;;;;;;5032200;28;20346;-49
2023/08/27 04:48:10;;;;;;;11.25;10.25;;;13.10;92.30;;;;;;5032512;28;20729;-49
2023/08/27 04:50:38;;;;;;;10.80;9.73;;;13.10;92.40;;;;;;5021786;28;20120;-48
2023/08/27 04:53:08;;;;;;;10.98;9.85;;;13.10;92.30;;;;;;5063847;28;20108;-47
2023/08/27 04:55:38;;;;;;;11.15;10.15;;;13.10;92.40;;;;;;5062515;28;20115;-46
2023/08/27 04:58:08;;;;;;;12.20;11.00;;;13.10;92.40;;;;;;5029502;28;20034;-52
2023/08/27 05:00:37;;;;;;;10.27;9.30;;;13.10;92.30;;;;;;5044142;28;20155;-47
2023/08/27 05:03:03;;;;;;;11.18;10.02;;;13.20;92.40;;;;;;5018622;28;20082;-49
2023/08/27 05:05:29;;;;;;;10.68;9.60;;;13.20;92.40;;;;;;5052885;28;20025;-51
2023/08/27 05:07:58;;;;;;;11.55;10.02;;;13.30;92.40;;;;;;5051885;28;20040;-45
2023/08/27 05:10:24;;;;;;;12.83;10.40;;;13.20;92.40;;;;;;5053100;28;20040;-47
2023/08/27 05:12:51;;;;;;;11.32;10.23;;;13.30;92.50;;;;;;5054825;28;20295;-50
2023/08/27 05:15:20;;;;;;;10.82;9.82;;;13.30;92.50;;;;;;5035526;28;20044;-48
2023/08/27 05:17:50;;;;;;;11.00;10.00;;;13.30;92.50;;;;;;5055417;28;20090;-49
2023/08/27 05:20:17;;;;;;;11.67;10.47;;;13.40;92.60;;;;;;5050601;28;20321;-50
2023/08/27 05:22:46;;;;;;;12.30;11.15;;;13.40;92.50;;;;;;5052559;28;20025;-46
2023/08/27 05:25:14;;;;;;;11.45;10.45;;;13.40;92.40;;;;;;5054787;28;20048;-45
2023/08/27 05:27:44;;;;;;;11.88;10.75;;;13.40;92.30;;;;;;5052491;28;20117;-45
2023/08/27 05:30:14;;;;;;;11.30;10.20;;;13.40;92.30;;;;;;5035301;28;20034;-49
2023/08/27 05:32:40;;;;;;;13.18;11.88;;;13.40;92.20;;;;;;5052367;28;20454;-48
2023/08/27 05:35:07;;;;;;;11.18;10.13;;;13.40;92.30;;;;;;5051294;28;20585;-47
2023/08/27 05:37:33;;;;;;;12.65;11.15;;;13.40;92.30;;;;;;5035210;28;20052;-46
2023/08/27 05:40:02;;;;;;;11.50;10.45;;;13.40;92.20;;;;;;5067508;28;20032;-47
2023/08/27 05:42:28;;;;;;;12.52;11.32;;;13.50;92.40;;;;;;5052592;28;20190;-48
2023/08/27 05:44:55;;;;;;;12.63;11.25;;;13.50;92.20;;;;;;5052242;28;20108;-50
2023/08/27 05:47:21;;;;;;;13.13;11.48;;;13.50;92.30;;;;;;5050626;28;20064;-46
2023/08/27 05:49:46;;;;;;;13.23;12.02;;;13.50;92.30;;;;;;5054279;28;20067;-47
2023/08/27 05:52:13;;;;;;;12.10;11.00;;;13.50;92.40;;;;;;5046516;28;20056;-47
2023/08/27 05:54:41;;;;;;;12.70;11.60;;;13.60;92.40;;;;;;5054653;28;20044;-52
2023/08/27 05:57:08;;;;;;;12.35;11.32;;;13.60;92.50;;;;;;5054597;28;20033;-48
2023/08/27 05:59:35;;;;;;;13.27;12.02;;;13.70;92.50;;;;;;5050501;28;20025;-48
2023/08/27 06:02:04;;;;;;;12.02;10.82;;;13.70;92.50;;;;;;5052336;28;20365;-48
2023/08/27 06:04:31;;;;;;;10.95;9.95;;;13.70;92.60;;;;;;5032209;28;20014;-49
2023/08/27 06:06:58;;;;;;;13.43;12.13;;;13.80;92.70;;;;;;5038045;28;20522;-48
2023/08/27 06:09:24;;;;;;;12.38;10.73;;;13.90;92.70;;;;;;5074905;28;20028;-48
2023/08/27 06:11:51;;;;;;;11.90;10.73;;;13.90;92.80;;;;;;5056218;28;20112;-45
2023/08/27 06:14:19;;;;;;;13.35;12.05;;;13.90;92.90;;;;;;5045971;28;20068;-48
2023/08/27 06:16:45;;;;;;;13.95;12.65;;;14.00;92.80;;;;;;5059073;28;20079;-50
2023/08/27 06:19:12;;;;;;;13.52;12.23;;;14.10;92.90;;;;;;5060163;28;20470;-50
2023/08/27 06:21:41;;;;;;;14.07;12.55;;;14.20;92.80;;;;;;5046978;28;20021;-47
2023/08/27 06:24:08;;;;;;;12.93;11.73;;;14.20;92.70;;;;;;5071687;28;20363;-47
2023/08/27 06:26:36;;;;;;;13.73;12.32;;;14.30;92.80;;;;;;5033255;28;20507;-48
2023/08/27 06:29:07;;;;;;;13.18;11.98;;;14.40;92.70;;;;;;5042559;28;20025;-47
2023/08/27 06:31:34;;;;;;;12.27;10.98;;;14.40;92.50;;;;;;5050460;28;20036;-45
2023/08/27 06:34:04;;;;;;;13.77;11.75;;;14.40;92.40;;;;;;5035086;28;20022;-48
2023/08/27 06:36:31;;;;;;;10.73;9.75;;;14.50;92.60;;;;;;5061948;28;20028;-49
2023/08/27 06:39:04;;;;;;;10.65;9.75;;;14.60;92.60;;;;;;5048773;28;20036;-46
2023/08/27 06:41:37;;;;;;;11.75;10.52;;;14.70;92.40;;;;;;5062188;28;20029;-46
2023/08/27 06:44:04;;;;;;;10.93;9.82;;;14.70;92.20;;;;;;5050403;28;20442;-45
2023/08/27 06:46:33;;;;;;;11.43;10.35;;;14.80;92.20;;;;;;5058003;28;20078;-44
2023/08/27 06:48:59;;;;;;;9.43;8.52;;;14.80;91.80;;;;;;5050157;28;20083;-49
2023/08/27 06:51:30;;;;;;;10.57;9.57;;;14.90;91.70;;;;;;5048614;28;20474;-46
2023/08/27 06:53:57;;;;;;;9.98;8.98;;;14.90;91.80;;;;;;5065400;28;20040;-47
2023/08/27 06:56:26;;;;;;;12.20;8.70;;;15.00;91.70;;;;;;5053742;28;20024;-47
2023/08/27 06:58:52;;;;;;;9.77;8.75;;;15.10;91.60;;;;;;5073835;28;20040;-50
2023/08/27 07:01:21;;;;;;;9.32;8.20;;;15.10;91.30;;;;;;5048991;28;20375;-47
2023/08/27 07:03:48;;;;;;;8.23;7.47;;;15.20;91.40;;;;;;5040320;28;20021;-48
2023/08/27 07:06:16;;;;;;;8.60;7.80;;;15.20;91.00;;;;;;5048631;28;20040;-48
2023/08/27 07:08:49;;;;;;;7.97;7.22;;;15.30;90.80;;;;;;5049117;28;20094;-51
2023/08/27 07:11:17;;;;;;;7.80;6.93;;;15.30;90.70;;;;;;5052190;28;20071;-50
2023/08/27 07:13:45;;;;;;;8.45;7.35;;;15.40;90.40;;;;;;5052820;28;20037;-49
2023/08/27 07:16:14;;;;;;;7.35;6.10;;;15.40;89.60;;;;;;5050684;28;20033;-49
2023/08/27 07:18:41;;;;;;;7.13;6.53;;;15.40;89.40;;;;;;5048720;28;20040;-46
2023/08/27 07:21:06;;;;;;;7.50;6.78;;;15.40;89.60;;;;;;5031985;28;20371;-46
2023/08/27 07:23:35;;;;;;;7.45;6.68;;;15.50;89.50;;;;;;5056918;28;20021;-45
2023/08/27 07:26:03;;;;;;;10.48;7.43;;;15.60;89.50;;;;;;5050719;28;20055;-45
2023/08/27 07:28:32;;;;;;;9.45;7.85;;;15.70;89.30;;;;;;5051982;28;20371;-46
2023/08/27 07:30:58;;;;;;;10.52;7.18;;;15.90;89.20;;;;;;5051696;28;20036;-49
2023/08/27 07:33:26;;;;;;;10.25;6.72;;;15.90;88.70;;;;;;5063900;28;20021;-46
2023/08/27 07:35:54;;;;;;;7.75;6.95;;;16.00;88.70;;;;;;5022444;28;20113;-48
2023/08/27 07:38:20;;;;;;;7.43;6.70;;;16.20;88.80;;;;;;5061322;28;20084;-46
2023/08/27 07:40:50;;;;;;;6.78;6.10;;;16.30;88.50;;;;;;5049008;28;20889;-46
2023/08/27 07:43:17;;;;;;;10.07;6.90;;;16.40;88.80;;;;;;5063636;28;20043;-48
2023/08/27 07:45:43;;;;;;;8.70;7.10;;;16.40;88.00;;;;;;5061490;28;20433;-47
2023/08/27 07:48:10;;;;;;;6.40;5.72;;;16.30;87.80;;;;;;5058207;28;20037;-52
2023/08/27 07:50:39;;;;;;;6.60;6.00;;;16.20;88.00;;;;;;5036061;28;20124;-46
2023/08/27 07:53:06;;;;;;;8.15;5.80;;;16.20;88.40;;;;;;5054826;28;20346;-46
2023/08/27 07:55:36;;;;;;;5.65;5.05;;;16.00;88.40;;;;;;5061295;28;20044;-50
2023/08/27 07:58:01;;;;;;;6.00;5.40;;;16.00;88.70;;;;;;5048648;28;20053;-48
2023/08/27 08:00:28;;;;;;;7.10;6.20;;;16.00;88.70;;;;;;5047696;28;20038;-52
2023/08/27 08:02:55;;;;;;;8.60;6.85;;;16.10;89.30;;;;;;5047870;28;20102;-52
2023/08/27 08:05:22;;;;;;;7.35;6.32;;;16.20;89.10;;;;;;5050915;28;20079;-46
2023/08/27 08:07:50;;;;;;;6.57;5.90;;;16.30;88.90;;;;;;5049666;28;20036;-49
2023/08/27 08:10:16;;;;;;;6.22;4.97;;;16.40;88.80;;;;;;5046322;28;20041;-50
2023/08/27 08:12:44;;;;;;;6.97;5.57;;;16.50;88.60;;;;;;5042151;28;20123;-48
2023/08/27 08:15:10;;;;;;;8.13;6.20;;;16.80;89.00;;;;;;5023272;28;20350;-48
2023/08/27 08:17:37;;;;;;;6.72;5.30;;;16.90;88.60;;;;;;5051933;28;20035;-51
2023/08/27 08:20:06;;;;;;;5.63;4.60;;;17.00;87.00;;;;;;5027227;28;20048;-51
2023/08/27 08:22:33;;;;;;;5.55;4.63;;;17.10;87.10;;;;;;5049756;28;20048;-51
2023/08/27 08:25:01;;;;;;;5.20;4.03;;;17.10;86.60;;;;;;5039081;28;20029;-48
2023/08/27 08:27:28;;;;;;;7.20;4.75;;;17.30;86.90;;;;;;5035144;28;20036;-51
2023/08/27 08:29:54;;;;;;;5.47;4.10;;;17.30;85.80;;;;;;5039286;28;20033;-53
2023/08/27 08:32:22;;;;;;;5.95;4.40;;;17.40;85.60;;;;;;5030165;28;20052;-52
2023/08/27 08:34:48;;;;;;;4.23;3.40;;;17.40;85.70;;;;;;5057231;28;20029;-53
2023/08/27 08:37:15;;;;;;;5.65;4.03;;;17.40;85.50;;;;;;5026748;28;20044;-55
2023/08/27 08:39:42;;;;;;;4.18;3.35;;;17.30;85.00;;;;;;5039065;28;20053;-53
2023/08/27 08:42:46;;;;;;;6.90;4.28;;;17.30;85.50;;;;;;5029044;28;20526;-53
2023/08/27 08:45:30;;;;;;;5.85;3.53;;;17.20;84.90;;;;;;5041433;28;20057;-48
2023/08/27 08:47:58;;;;;;;4.68;4.05;;;17.20;85.30;;;;;;5055274;28;20028;-50
2023/08/27 08:50:26;;;;;;;5.30;4.07;;;17.20;86.00;;;;;;5030802;28;20037;-53
2023/08/27 08:52:53;;;;;;;6.20;4.15;;;17.30;86.50;;;;;;5029669;28;20366;-53
2023/08/27 08:55:27;;;;;;;7.28;4.70;;;17.30;86.00;;;;;;5052337;28;20056;-55
2023/08/27 08:58:13;;;;;;;5.65;4.63;;;17.20;85.60;;;;;;5054320;28;20064;-50
2023/08/27 09:00:39;;;;;;;7.03;4.93;;;17.20;86.00;;;;;;5019404;28;20605;-48
2023/08/27 09:03:05;;;;;;;5.60;4.72;;;17.20;86.40;;;;;;5054913;28;20040;-54
2023/08/27 09:05:34;;;;;;;6.20;4.32;;;17.10;85.80;;;;;;5042576;28;20544;-52
2023/08/27 09:08:03;;;;;;;6.50;4.95;;;17.10;85.90;;;;;;5045294;28;20354;-52
2023/08/27 09:10:31;;;;;;;5.60;4.88;;;17.10;85.90;;;;;;5047380;28;20047;-52
2023/08/27 09:13:01;;;;;;;7.85;5.38;;;17.10;86.00;;;;;;5018710;28;20095;-52
2023/08/27 09:15:29;;;;;;;6.88;4.95;;;17.10;86.60;;;;;;5055305;28;20033;-53
2023/08/27 09:17:55;;;;;;;5.55;4.57;;;17.10;86.70;;;;;;5047505;28;20033;-52
2023/08/27 09:20:21;;;;;;;7.10;5.85;;;17.20;86.90;;;;;;5055154;28;20087;-48
2023/08/27 09:22:48;;;;;;;8.10;6.25;;;17.10;86.70;;;;;;5040622;28;20021;-47
2023/08/27 09:25:14;;;;;;;6.63;5.63;;;17.00;86.90;;;;;;5047293;28;20045;-52
2023/08/27 09:27:41;;;;;;;8.38;6.15;;;17.00;87.40;;;;;;5046168;28;20656;-51
2023/08/27 09:30:11;;;;;;;7.50;6.28;;;17.00;87.70;;;;;;5037831;28;20407;-50
2023/08/27 09:32:39;;;;;;;7.18;6.40;;;16.80;87.70;;;;;;5051268;28;20040;-52
2023/08/27 09:35:07;;;;;;;5.75;5.15;;;16.70;88.30;;;;;;5041028;28;20033;-53
2023/08/27 09:37:41;;;;;;;7.50;6.80;;;16.70;89.10;;;;;;5050842;28;20043;-50
2023/08/27 09:40:19;;;;;;;9.32;7.05;;;16.80;89.30;;;;;;5041495;28;20040;-52
2023/08/27 09:42:47;;;;;;;9.95;6.80;;;16.90;89.10;;;;;;5043054;28;20331;-48
2023/08/27 09:45:17;;;;;;;8.32;7.53;;;17.00;89.70;;;;;;5043442;28;20079;-58
2023/08/27 09:47:57;;;;;;;7.32;6.63;;;17.10;89.40;;;;;;5027321;28;20123;-49
2023/08/27 09:50:27;;;;;;;7.90;7.20;;;17.20;89.40;;;;;;5035042;28;20101;-47
2023/08/27 09:53:22;;;;;;;7.25;6.53;;;17.40;89.70;;;;;;5049940;28;20047;-49
2023/08/27 09:55:52;;;;;;;8.13;7.32;;;17.60;89.70;;;;;;5050287;28;20468;-46
2023/08/27 09:58:24;;;;;;;;;;;17.80;88.80;;;;;;5047996;28;20065;-50
2023/08/27 10:00:58;;;;;;;7.28;6.32;;;17.90;87.90;;;;;;5040652;28;19923;-48
2023/08/27 10:03:28;;;;;;;6.88;6.18;;;17.90;87.60;;;;;;5035977;28;20041;-49
2023/08/27 10:05:55;;;;;;;8.30;6.20;;;18.00;87.40;;;;;;5030195;28;20029;-50
2023/08/27 10:08:23;;;;;;;7.40;6.68;;;18.00;86.50;;;;;;5054801;28;20354;-48
2023/08/27 10:10:50;;;;;;;8.70;6.22;;;18.10;86.60;;;;;;5059096;28;20021;-48
2023/08/27 10:13:21;;;;;;;6.47;5.88;;;18.20;86.50;;;;;;5044693;28;20461;-51
2023/08/27 10:15:50;;;;;;;6.93;5.57;;;18.30;86.50;;;;;;5055174;28;20044;-53
2023/08/27 10:18:17;;;;;;;8.85;5.25;;;18.30;86.10;;;;;;5030472;28;20032;-50
2023/08/27 10:20:45;;;;;;;6.63;5.43;;;18.30;85.80;;;;;;5046958;28;20064;-52
2023/08/27 10:23:17;;;;;;;6.35;5.30;;;18.20;85.60;;;;;;5037694;28;20112;-54
2023/08/27 10:25:55;;;;;;;6.38;4.38;;;18.20;85.60;;;;;;5055526;28;20025;-52
2023/08/27 10:28:23;;;;;;;6.78;4.35;;;18.30;86.00;;;;;;5051883;28;20025;-52
2023/08/27 10:30:52;;;;;;;4.10;3.47;;;18.40;85.70;;;;;;5034911;28;20461;-52
2023/08/27 10:33:18;;;;;;;8.90;4.65;;;18.50;86.10;;;;;;5032284;28;20029;-53
2023/08/27 10:35:45;;;;;;;5.22;3.50;;;18.60;85.60;;;;;;5058596;28;20060;-50
2023/08/27 10:38:15;;;;;;;6.55;3.35;;;18.70;85.20;;;;;;5034519;28;20053;-53
2023/08/27 10:40:44;;;;;;;6.30;3.95;;;18.60;83.80;;;;;;5015473;28;20443;-55
2023/08/27 10:43:17;;;;;;;8.18;3.92;;;18.60;83.80;;;;;;5044784;28;20582;-52
2023/08/27 10:46:07;;;;;;;6.97;3.58;;;18.60;84.50;;;;;;5044782;28;20049;-56
2023/08/27 10:48:37;;;;;;;7.65;4.22;;;18.90;84.80;;;;;;5048960;28;20479;-55
2023/08/27 10:51:17;;;;;;;4.25;3.85;;;19.00;82.90;;;;;;5032236;28;20036;-55
2023/08/27 10:54:11;;;;;;;8.60;4.13;;;19.00;83.50;;;;;;5029509;28;20056;-55
2023/08/27 10:56:58;;;;;;;5.55;3.08;;;19.00;83.50;;;;;;5026351;28;20032;-52
2023/08/27 10:59:31;;;;;;;5.68;2.63;;;18.90;82.50;;;;;;5046058;28;20101;-53
2023/08/27 11:02:10;;;;;;;3.30;2.28;;;19.00;82.10;;;;;;5048598;28;20036;-53
2023/08/27 11:04:54;;;;;;;4.88;2.88;;;19.20;82.10;;;;;;5038952;28;20032;-56
2023/08/27 11:07:22;;;;;;;2.97;2.05;;;19.40;81.30;;;;;;5057030;28;20656;-53
2023/08/27 11:10:07;;;;;;;4.85;2.20;;;19.70;81.80;;;;;;5057911;28;20036;-53
2023/08/27 11:12:37;;;;;;;5.07;1.80;;;19.70;78.80;;;;;;5054756;28;20029;-53
2023/08/27 11:15:32;;;;;;;4.10;2.38;;;19.80;78.30;;;;;;5052450;28;20028;-51
2023/08/27 11:18:19;;;;;;;3.78;1.70;;;20.00;77.60;;;;;;5049568;28;20072;-52
2023/08/27 11:20:46;;;;;;;3.28;1.73;;;20.00;76.00;;;;;;5054337;28;20504;-56
2023/08/27 11:23:13;;;;;;;2.95;1.73;;;20.10;77.90;;;;;;5047624;28;20029;-55
2023/08/27 11:25:39;;;;;;;2.95;1.77;;;20.00;75.70;;;;;;5043439;28;20025;-56
2023/08/27 11:28:07;;;;;;;2.15;1.10;;;20.10;76.30;;;;;;5014344;28;20029;-50
2023/08/27 11:30:32;;;;;;;3.08;1.95;;;20.30;77.20;;;;;;5028234;28;20038;-55
2023/08/27 11:33:02;;;;;;;3.92;1.73;;;20.30;76.10;;;;;;5054760;28;20027;-51
2023/08/27 11:35:37;;;;;;;3.92;1.75;;;20.10;75.20;;;;;;5050296;28;20055;-58
2023/08/27 11:38:04;;;;;;;3.08;1.50;;;20.00;75.80;;;;;;5046093;28;20359;-54
2023/08/27 11:40:36;;;;;;;2.72;1.40;;;19.90;76.30;;;;;;5051831;28;20033;-51
2023/08/27 11:43:05;;;;;;;2.10;1.02;;;19.90;76.20;;;;;;5033072;28;20042;-54
2023/08/27 11:45:37;;;;;;;2.50;1.35;;;19.80;76.00;;;;;;5028879;28;20061;-51
2023/08/27 11:48:25;;;;;;;3.15;1.27;;;19.80;76.30;;;;;;5030001;28;20358;-52
2023/08/27 11:51:02;;;;;;;1.92;0.90;;;19.80;75.40;;;;;;5053173;28;20335;-52
2023/08/27 11:53:27;;;;;;;2.38;1.00;;;19.90;75.70;;;;;;5024733;28;20450;-55
2023/08/27 11:55:53;;;;;;;2.33;0.90;;;19.90;75.00;;;;;;5048414;28;20037;-55
2023/08/27 11:58:20;;;;;;;4.47;1.50;;;20.10;75.50;;;;;;5056885;28;20022;-53
2023/08/27 12:00:54;;;;;;;1.65;0.75;;;20.20;76.40;;;;;;5053836;28;20495;-53
2023/08/27 12:03:21;;;;;;;1.40;0.70;;;20.40;76.00;;;;;;5039484;28;20059;-56
2023/08/27 12:05:47;;;;;;;1.88;1.00;;;20.50;73.20;;;;;;5066915;28;20037;-51
2023/08/27 12:08:15;;;;;;;2.47;0.85;;;20.70;73.60;;;;;;5056355;28;20039;-53
2023/08/27 12:10:49;;;;;;;1.92;0.73;;;20.80;72.00;;;;;;5064203;28;20029;-49
2023/08/27 12:13:16;;;;;;;1.63;0.85;;;21.10;72.10;;;;;;5059606;28;20043;-49
2023/08/27 12:15:43;;;;;;;3.92;0.95;;;21.10;69.30;;;;;;5071742;28;20040;-53
2023/08/27 12:18:11;;;;;;;3.20;1.00;;;21.10;67.80;;;;;;5067746;28;20039;-53
2023/08/27 12:20:37;;;;;;;2.13;0.68;;;21.10;70.20;;;;;;5078585;28;20021;-52
2023/08/27 12:23:12;;;;;;;1.45;0.73;;;21.10;69.20;;;;;;5067622;28;20021;-52
2023/08/27 12:25:53;;;;;;;3.92;0.90;;;20.90;69.70;;;;;;5065952;28;20033;-52
2023/08/27 12:28:23;;;;;;;1.80;0.82;;;20.60;69.40;;;;;;5057223;28;20033;-51
2023/08/27 12:30:55;;;;;;;2.92;1.42;;;20.60;70.70;;;;;;5060966;28;20036;-53
2023/08/27 12:33:39;;;;;;;1.20;0.60;;;20.40;71.10;;;;;;5050911;28;20035;-54
2023/08/27 12:36:07;;;;;;;1.80;0.77;;;20.50;71.40;;;;;;5063018;28;20029;-50
2023/08/27 12:38:35;;;;;;;4.03;0.68;;;20.60;69.40;;;;;;5048770;28;20109;-50
2023/08/27 12:41:02;;;;;;;1.92;0.75;;;20.60;69.50;;;;;;5048350;28;20021;-53
2023/08/27 12:43:30;;;;;;;2.58;0.80;;;20.70;68.80;;;;;;5051678;28;20461;-52
2023/08/27 12:45:58;;;;;;;1.63;0.82;;;20.70;69.50;;;;;;5046609;28;20036;-53
2023/08/27 12:48:25;;;;;;;3.47;1.00;;;20.90;69.80;;;;;;5042214;28;20021;-52
2023/08/27 12:50:57;;;;;;;1.73;0.75;;;20.90;69.30;;;;;;5048663;28;20037;-50
2023/08/27 12:53:24;;;;;;;2.03;0.70;;;20.70;68.10;;;;;;5050556;28;20041;-52